Scranton, North Carolina
Current Conditions -  °F | °C
As of 11:56 AM on Friday 28 Nov 2014 (Local Time) from K2DP Reporting Station
Few Clouds Few Clouds  
Wind Chill: 37°   Ceiling: Unl
Heat Index: 43°   Visibility: 10mi
Dew Point: 25°   Wind: 12mph
Humidity: 50%   Direction: 340°NNW
Pressure: 30.3"   Gusts: 22mph
Location:  35.5°N, 76.45°W
Report Text: K2DP 281656Z AUTO 34010G19KT 10SM FEW043 06/M04 A3030 RMK AO2 SLPNO T00601037
Loading
Personal Weather Stations






























Interactive Weather Map New forecast layout! Learn more

10-Day Weather Forecast

Advertisements
Track Severe Weather on mobile